sensor_id;sensor_type;location;lat;lon;timestamp;P1;durP1;ratioP1;P2;durP2;ratioP2
17251;SDS011;8742;51.716;8.790;2023-07-08T00:01:15;4.07;;;2.40;;
17251;SDS011;8742;51.716;8.790;2023-07-08T00:03:44;5.33;;;2.70;;
17251;SDS011;8742;51.716;8.790;2023-07-08T00:06:13;5.43;;;2.57;;
17251;SDS011;8742;51.716;8.790;2023-07-08T00:08:45;4.10;;;2.60;;
17251;SDS011;8742;51.716;8.790;2023-07-08T00:11:18;7.80;;;2.50;;
17251;SDS011;8742;51.716;8.790;2023-07-08T00:13:48;5.27;;;2.33;;
17251;SDS011;8742;51.716;8.790;2023-07-08T00:16:16;3.03;;;2.37;;
17251;SDS011;8742;51.716;8.790;2023-07-08T00:18:44;4.43;;;2.30;;
17251;SDS011;8742;51.716;8.790;2023-07-08T00:21:14;3.17;;;2.40;;
17251;SDS011;8742;51.716;8.790;2023-07-08T00:23:44;7.43;;;2.40;;
17251;SDS011;8742;51.716;8.790;2023-07-08T00:26:13;6.43;;;2.40;;
17251;SDS011;8742;51.716;8.790;2023-07-08T00:28:44;6.33;;;2.30;;
17251;SDS011;8742;51.716;8.790;2023-07-08T00:31:11;3.43;;;2.20;;
17251;SDS011;8742;51.716;8.790;2023-07-08T00:33:38;3.30;;;2.30;;
17251;SDS011;8742;51.716;8.790;2023-07-08T00:36:08;9.47;;;2.63;;
17251;SDS011;8742;51.716;8.790;2023-07-08T00:38:37;6.70;;;2.50;;
17251;SDS011;8742;51.716;8.790;2023-07-08T00:41:12;5.63;;;2.73;;
17251;SDS011;8742;51.716;8.790;2023-07-08T00:43:48;10.03;;;2.43;;
17251;SDS011;8742;51.716;8.790;2023-07-08T00:46:30;5.23;;;2.43;;
17251;SDS011;8742;51.716;8.790;2023-07-08T00:49:19;2.57;;;2.10;;
17251;SDS011;8742;51.716;8.790;2023-07-08T00:54:58;3.33;;;2.80;;
17251;SDS011;8742;51.716;8.790;2023-07-08T00:57:30;8.27;;;2.30;;
17251;SDS011;8742;51.716;8.790;2023-07-08T01:00:00;3.73;;;2.27;;
17251;SDS011;8742;51.716;8.790;2023-07-08T01:02:30;5.80;;;2.63;;
17251;SDS011;8742;51.716;8.790;2023-07-08T01:05:02;3.77;;;2.40;;
17251;SDS011;8742;51.716;8.790;2023-07-08T01:07:32;4.63;;;2.40;;
17251;SDS011;8742;51.716;8.790;2023-07-08T01:10:02;4.80;;;2.53;;
17251;SDS011;8742;51.716;8.790;2023-07-08T01:12:32;3.40;;;2.20;;
17251;SDS011;8742;51.716;8.790;2023-07-08T01:15:02;5.90;;;2.50;;
17251;SDS011;8742;51.716;8.790;2023-07-08T01:17:32;5.13;;;2.60;;
17251;SDS011;8742;51.716;8.790;2023-07-08T01:19:59;8.30;;;2.40;;
17251;SDS011;8742;51.716;8.790;2023-07-08T01:22:32;4.03;;;2.77;;
17251;SDS011;8742;51.716;8.790;2023-07-08T01:25:01;3.30;;;2.70;;
17251;SDS011;8742;51.716;8.790;2023-07-08T01:27:28;3.60;;;2.40;;
17251;SDS011;8742;51.716;8.790;2023-07-08T01:29:57;4.37;;;2.10;;
17251;SDS011;8742;51.716;8.790;2023-07-08T01:32:25;2.67;;;2.37;;
17251;SDS011;8742;51.716;8.790;2023-07-08T01:34:53;5.57;;;2.33;;
17251;SDS011;8742;51.716;8.790;2023-07-08T01:37:28;3.03;;;2.20;;
17251;SDS011;8742;51.716;8.790;2023-07-08T01:39:58;4.53;;;2.20;;
17251;SDS011;8742;51.716;8.790;2023-07-08T01:42:40;4.37;;;2.57;;
17251;SDS011;8742;51.716;8.790;2023-07-08T01:45:09;2.57;;;2.37;;
17251;SDS011;8742;51.716;8.790;2023-07-08T01:47:37;6.63;;;2.63;;
17251;SDS011;8742;51.716;8.790;2023-07-08T01:50:05;4.07;;;2.40;;
17251;SDS011;8742;51.716;8.790;2023-07-08T01:52:33;2.80;;;2.50;;
17251;SDS011;8742;51.716;8.790;2023-07-08T01:55:02;5.80;;;2.73;;
17251;SDS011;8742;51.716;8.790;2023-07-08T01:57:29;3.83;;;2.50;;
17251;SDS011;8742;51.716;8.790;2023-07-08T01:59:57;9.80;;;2.50;;
17251;SDS011;8742;51.716;8.790;2023-07-08T02:02:24;4.10;;;2.20;;
17251;SDS011;8742;51.716;8.790;2023-07-08T02:04:51;7.07;;;2.60;;
17251;SDS011;8742;51.716;8.790;2023-07-08T02:07:18;6.40;;;2.57;;
17251;SDS011;8742;51.716;8.790;2023-07-08T02:09:44;11.10;;;2.43;;
17251;SDS011;8742;51.716;8.790;2023-07-08T02:12:12;6.70;;;2.77;;
17251;SDS011;8742;51.716;8.790;2023-07-08T02:14:39;4.07;;;2.30;;
17251;SDS011;8742;51.716;8.790;2023-07-08T02:17:06;7.07;;;2.53;;
17251;SDS011;8742;51.716;8.790;2023-07-08T02:19:33;7.53;;;2.73;;
17251;SDS011;8742;51.716;8.790;2023-07-08T02:22:00;4.97;;;2.40;;
17251;SDS011;8742;51.716;8.790;2023-07-08T02:24:26;8.07;;;2.70;;
17251;SDS011;8742;51.716;8.790;2023-07-08T02:26:53;5.20;;;2.50;;
17251;SDS011;8742;51.716;8.790;2023-07-08T02:29:21;7.17;;;2.47;;
17251;SDS011;8742;51.716;8.790;2023-07-08T02:31:48;3.30;;;2.40;;
17251;SDS011;8742;51.716;8.790;2023-07-08T02:34:15;6.07;;;2.60;;
17251;SDS011;8742;51.716;8.790;2023-07-08T02:36:42;5.30;;;2.20;;
17251;SDS011;8742;51.716;8.790;2023-07-08T02:39:09;7.23;;;2.50;;
17251;SDS011;8742;51.716;8.790;2023-07-08T02:41:36;3.80;;;2.40;;
17251;SDS011;8742;51.716;8.790;2023-07-08T02:44:03;4.23;;;2.40;;
17251;SDS011;8742;51.716;8.790;2023-07-08T02:46:31;3.97;;;2.50;;
17251;SDS011;8742;51.716;8.790;2023-07-08T02:48:58;6.57;;;2.40;;
17251;SDS011;8742;51.716;8.790;2023-07-08T02:51:25;8.53;;;2.57;;
17251;SDS011;8742;51.716;8.790;2023-07-08T02:53:52;4.70;;;2.40;;
17251;SDS011;8742;51.716;8.790;2023-07-08T02:56:19;3.90;;;2.20;;
17251;SDS011;8742;51.716;8.790;2023-07-08T02:58:46;4.70;;;2.40;;
17251;SDS011;8742;51.716;8.790;2023-07-08T03:01:12;7.50;;;2.57;;
17251;SDS011;8742;51.716;8.790;2023-07-08T03:03:43;4.17;;;2.30;;
17251;SDS011;8742;51.716;8.790;2023-07-08T03:06:10;7.53;;;2.80;;
17251;SDS011;8742;51.716;8.790;2023-07-08T03:08:38;4.67;;;2.50;;
17251;SDS011;8742;51.716;8.790;2023-07-08T03:11:05;7.77;;;2.60;;
17251;SDS011;8742;51.716;8.790;2023-07-08T03:13:33;7.40;;;2.60;;
17251;SDS011;8742;51.716;8.790;2023-07-08T03:16:01;11.20;;;2.43;;
17251;SDS011;8742;51.716;8.790;2023-07-08T03:18:37;9.13;;;2.57;;
17251;SDS011;8742;51.716;8.790;2023-07-08T03:21:12;2.73;;;2.43;;
17251;SDS011;8742;51.716;8.790;2023-07-08T03:23:40;7.20;;;2.50;;
17251;SDS011;8742;51.716;8.790;2023-07-08T03:26:07;7.10;;;2.47;;
17251;SDS011;8742;51.716;8.790;2023-07-08T03:28:38;3.73;;;2.30;;
17251;SDS011;8742;51.716;8.790;2023-07-08T03:31:07;5.63;;;2.67;;
17251;SDS011;8742;51.716;8.790;2023-07-08T03:33:35;3.97;;;2.57;;
17251;SDS011;8742;51.716;8.790;2023-07-08T03:36:02;2.90;;;2.27;;
17251;SDS011;8742;51.716;8.790;2023-07-08T03:38:31;3.17;;;2.60;;
17251;SDS011;8742;51.716;8.790;2023-07-08T03:40:57;2.57;;;2.10;;
17251;SDS011;8742;51.716;8.790;2023-07-08T03:43:24;5.90;;;2.53;;
17251;SDS011;8742;51.716;8.790;2023-07-08T03:45:51;5.17;;;2.43;;
17251;SDS011;8742;51.716;8.790;2023-07-08T03:48:18;6.37;;;2.43;;
17251;SDS011;8742;51.716;8.790;2023-07-08T03:50:45;3.50;;;2.43;;
17251;SDS011;8742;51.716;8.790;2023-07-08T03:53:12;3.77;;;2.53;;
17251;SDS011;8742;51.716;8.790;2023-07-08T03:55:40;5.97;;;2.50;;
17251;SDS011;8742;51.716;8.790;2023-07-08T03:58:07;2.37;;;2.17;;
17251;SDS011;8742;51.716;8.790;2023-07-08T04:00:33;5.00;;;2.77;;
17251;SDS011;8742;51.716;8.790;2023-07-08T04:03:00;3.93;;;2.57;;
17251;SDS011;8742;51.716;8.790;2023-07-08T04:05:27;8.90;;;2.53;;
17251;SDS011;8742;51.716;8.790;2023-07-08T04:07:54;6.57;;;2.67;;
17251;SDS011;8742;51.716;8.790;2023-07-08T04:10:21;6.70;;;2.53;;
17251;SDS011;8742;51.716;8.790;2023-07-08T04:12:49;5.50;;;2.40;;
17251;SDS011;8742;51.716;8.790;2023-07-08T04:15:16;7.13;;;2.60;;
17251;SDS011;8742;51.716;8.790;2023-07-08T04:17:44;6.83;;;2.80;;
17251;SDS011;8742;51.716;8.790;2023-07-08T04:20:13;7.50;;;2.50;;
17251;SDS011;8742;51.716;8.790;2023-07-08T04:22:43;3.73;;;2.37;;
17251;SDS011;8742;51.716;8.790;2023-07-08T04:25:10;6.43;;;2.70;;
17251;SDS011;8742;51.716;8.790;2023-07-08T04:27:39;4.47;;;2.77;;
17251;SDS011;8742;51.716;8.790;2023-07-08T04:30:09;3.53;;;2.37;;
17251;SDS011;8742;51.716;8.790;2023-07-08T04:32:46;3.57;;;2.60;;
17251;SDS011;8742;51.716;8.790;2023-07-08T04:35:13;6.63;;;2.53;;
17251;SDS011;8742;51.716;8.790;2023-07-08T04:37:40;4.27;;;2.40;;
17251;SDS011;8742;51.716;8.790;2023-07-08T04:40:09;5.70;;;2.13;;
17251;SDS011;8742;51.716;8.790;2023-07-08T04:42:43;5.53;;;2.77;;
17251;SDS011;8742;51.716;8.790;2023-07-08T04:45:13;5.57;;;2.73;;
17251;SDS011;8742;51.716;8.790;2023-07-08T04:47:42;4.50;;;2.67;;
17251;SDS011;8742;51.716;8.790;2023-07-08T04:50:12;5.43;;;2.60;;
17251;SDS011;8742;51.716;8.790;2023-07-08T04:52:39;5.60;;;2.80;;
17251;SDS011;8742;51.716;8.790;2023-07-08T04:55:06;5.53;;;2.87;;
17251;SDS011;8742;51.716;8.790;2023-07-08T04:57:34;10.67;;;2.80;;
17251;SDS011;8742;51.716;8.790;2023-07-08T05:00:01;3.10;;;2.33;;
17251;SDS011;8742;51.716;8.790;2023-07-08T05:02:31;6.47;;;2.67;;
17251;SDS011;8742;51.716;8.790;2023-07-08T05:04:58;3.57;;;2.33;;
17251;SDS011;8742;51.716;8.790;2023-07-08T05:07:25;6.87;;;2.93;;
17251;SDS011;8742;51.716;8.790;2023-07-08T05:09:52;4.83;;;2.40;;
17251;SDS011;8742;51.716;8.790;2023-07-08T05:12:19;5.17;;;2.47;;
17251;SDS011;8742;51.716;8.790;2023-07-08T05:14:45;6.23;;;2.60;;
17251;SDS011;8742;51.716;8.790;2023-07-08T05:17:12;4.70;;;2.70;;
17251;SDS011;8742;51.716;8.790;2023-07-08T05:19:40;3.60;;;2.63;;
17251;SDS011;8742;51.716;8.790;2023-07-08T05:22:09;4.03;;;2.27;;
17251;SDS011;8742;51.716;8.790;2023-07-08T05:24:36;5.00;;;2.73;;
17251;SDS011;8742;51.716;8.790;2023-07-08T05:27:03;6.03;;;2.77;;
17251;SDS011;8742;51.716;8.790;2023-07-08T05:29:30;6.87;;;2.43;;
17251;SDS011;8742;51.716;8.790;2023-07-08T05:31:57;9.30;;;2.50;;
17251;SDS011;8742;51.716;8.790;2023-07-08T05:34:23;3.93;;;2.63;;
17251;SDS011;8742;51.716;8.790;2023-07-08T05:36:52;3.87;;;2.77;;
17251;SDS011;8742;51.716;8.790;2023-07-08T05:39:18;5.17;;;2.63;;
17251;SDS011;8742;51.716;8.790;2023-07-08T05:41:45;3.13;;;2.37;;
17251;SDS011;8742;51.716;8.790;2023-07-08T05:44:12;5.47;;;2.60;;
17251;SDS011;8742;51.716;8.790;2023-07-08T05:46:39;5.27;;;2.60;;
17251;SDS011;8742;51.716;8.790;2023-07-08T05:49:05;3.73;;;2.70;;
17251;SDS011;8742;51.716;8.790;2023-07-08T05:51:33;2.57;;;2.37;;
17251;SDS011;8742;51.716;8.790;2023-07-08T05:54:01;6.60;;;2.90;;
17251;SDS011;8742;51.716;8.790;2023-07-08T05:56:28;4.93;;;2.50;;
17251;SDS011;8742;51.716;8.790;2023-07-08T05:58:55;2.50;;;2.30;;
17251;SDS011;8742;51.716;8.790;2023-07-08T06:01:22;3.20;;;2.63;;
17251;SDS011;8742;51.716;8.790;2023-07-08T06:03:49;7.27;;;2.97;;
17251;SDS011;8742;51.716;8.790;2023-07-08T06:06:16;4.20;;;2.90;;
17251;SDS011;8742;51.716;8.790;2023-07-08T06:08:43;4.33;;;3.07;;
17251;SDS011;8742;51.716;8.790;2023-07-08T06:11:11;5.07;;;2.47;;
17251;SDS011;8742;51.716;8.790;2023-07-08T06:13:38;3.37;;;2.70;;
17251;SDS011;8742;51.716;8.790;2023-07-08T06:16:05;7.40;;;2.87;;
17251;SDS011;8742;51.716;8.790;2023-07-08T06:18:31;8.77;;;2.50;;
17251;SDS011;8742;51.716;8.790;2023-07-08T06:20:58;5.60;;;2.70;;
17251;SDS011;8742;51.716;8.790;2023-07-08T06:23:26;5.43;;;2.63;;
17251;SDS011;8742;51.716;8.790;2023-07-08T06:25:53;2.60;;;2.40;;
17251;SDS011;8742;51.716;8.790;2023-07-08T06:28:22;5.50;;;3.03;;
17251;SDS011;8742;51.716;8.790;2023-07-08T06:30:49;4.45;;;2.75;;
17251;SDS011;8742;51.716;8.790;2023-07-08T06:33:16;4.33;;;2.73;;
17251;SDS011;8742;51.716;8.790;2023-07-08T06:35:43;7.30;;;2.95;;
17251;SDS011;8742;51.716;8.790;2023-07-08T06:38:10;5.07;;;2.80;;
17251;SDS011;8742;51.716;8.790;2023-07-08T06:40:38;7.38;;;2.65;;
17251;SDS011;8742;51.716;8.790;2023-07-08T06:43:05;4.93;;;2.70;;
17251;SDS011;8742;51.716;8.790;2023-07-08T06:45:33;4.78;;;2.72;;
17251;SDS011;8742;51.716;8.790;2023-07-08T06:48:00;5.65;;;2.95;;
17251;SDS011;8742;51.716;8.790;2023-07-08T06:50:27;4.35;;;2.70;;
17251;SDS011;8742;51.716;8.790;2023-07-08T06:52:53;3.53;;;2.58;;
17251;SDS011;8742;51.716;8.790;2023-07-08T06:55:20;2.78;;;2.53;;
17251;SDS011;8742;51.716;8.790;2023-07-08T06:57:47;4.25;;;2.88;;
17251;SDS011;8742;51.716;8.790;2023-07-08T07:00:14;6.32;;;2.92;;
17251;SDS011;8742;51.716;8.790;2023-07-08T07:02:42;7.80;;;2.97;;
17251;SDS011;8742;51.716;8.790;2023-07-08T07:05:09;3.55;;;2.80;;
17251;SDS011;8742;51.716;8.790;2023-07-08T07:07:36;4.07;;;2.70;;
17251;SDS011;8742;51.716;8.790;2023-07-08T07:10:03;4.38;;;2.83;;
17251;SDS011;8742;51.716;8.790;2023-07-08T07:12:30;3.90;;;2.88;;
17251;SDS011;8742;51.716;8.790;2023-07-08T07:14:57;3.55;;;2.75;;
17251;SDS011;8742;51.716;8.790;2023-07-08T07:17:24;9.25;;;3.20;;
17251;SDS011;8742;51.716;8.790;2023-07-08T07:19:53;4.43;;;2.92;;
17251;SDS011;8742;51.716;8.790;2023-07-08T07:22:20;5.07;;;2.70;;
17251;SDS011;8742;51.716;8.790;2023-07-08T07:24:47;7.75;;;2.72;;
17251;SDS011;8742;51.716;8.790;2023-07-08T07:27:13;4.10;;;3.08;;
17251;SDS011;8742;51.716;8.790;2023-07-08T07:29:41;3.15;;;2.80;;
17251;SDS011;8742;51.716;8.790;2023-07-08T07:32:09;6.30;;;3.08;;
17251;SDS011;8742;51.716;8.790;2023-07-08T07:34:37;8.52;;;2.90;;
17251;SDS011;8742;51.716;8.790;2023-07-08T07:37:05;3.10;;;2.85;;
17251;SDS011;8742;51.716;8.790;2023-07-08T07:39:36;5.13;;;3.10;;
17251;SDS011;8742;51.716;8.790;2023-07-08T07:42:03;5.40;;;3.00;;
17251;SDS011;8742;51.716;8.790;2023-07-08T07:44:30;12.20;;;3.35;;
17251;SDS011;8742;51.716;8.790;2023-07-08T07:46:56;3.50;;;2.67;;
17251;SDS011;8742;51.716;8.790;2023-07-08T07:49:23;5.43;;;3.05;;
17251;SDS011;8742;51.716;8.790;2023-07-08T07:51:50;5.70;;;2.90;;
17251;SDS011;8742;51.716;8.790;2023-07-08T07:54:18;4.55;;;2.97;;
17251;SDS011;8742;51.716;8.790;2023-07-08T07:56:45;6.35;;;3.28;;
17251;SDS011;8742;51.716;8.790;2023-07-08T07:59:12;4.30;;;3.20;;
17251;SDS011;8742;51.716;8.790;2023-07-08T08:01:38;6.75;;;3.38;;
17251;SDS011;8742;51.716;8.790;2023-07-08T08:04:06;8.18;;;3.80;;
17251;SDS011;8742;51.716;8.790;2023-07-08T08:06:33;6.35;;;2.95;;
17251;SDS011;8742;51.716;8.790;2023-07-08T08:09:00;6.88;;;3.00;;
17251;SDS011;8742;51.716;8.790;2023-07-08T08:11:28;10.52;;;3.45;;
17251;SDS011;8742;51.716;8.790;2023-07-08T08:13:55;7.57;;;3.00;;
17251;SDS011;8742;51.716;8.790;2023-07-08T08:16:22;6.82;;;3.50;;
17251;SDS011;8742;51.716;8.790;2023-07-08T08:18:49;6.22;;;3.00;;
17251;SDS011;8742;51.716;8.790;2023-07-08T08:21:16;12.45;;;3.22;;
17251;SDS011;8742;51.716;8.790;2023-07-08T08:23:43;4.53;;;2.80;;
17251;SDS011;8742;51.716;8.790;2023-07-08T08:26:09;7.78;;;3.00;;
17251;SDS011;8742;51.716;8.790;2023-07-08T08:28:38;5.03;;;2.80;;
17251;SDS011;8742;51.716;8.790;2023-07-08T08:31:05;3.17;;;2.50;;
17251;SDS011;8742;51.716;8.790;2023-07-08T08:33:32;5.80;;;2.97;;
17251;SDS011;8742;51.716;8.790;2023-07-08T08:35:58;4.07;;;3.17;;
17251;SDS011;8742;51.716;8.790;2023-07-08T08:38:25;5.28;;;2.83;;
17251;SDS011;8742;51.716;8.790;2023-07-08T08:40:52;4.85;;;2.72;;
17251;SDS011;8742;51.716;8.790;2023-07-08T08:43:20;4.00;;;2.78;;
17251;SDS011;8742;51.716;8.790;2023-07-08T08:45:53;4.25;;;2.67;;
17251;SDS011;8742;51.716;8.790;2023-07-08T08:48:25;3.00;;;2.70;;
17251;SDS011;8742;51.716;8.790;2023-07-08T08:50:55;4.35;;;3.03;;
17251;SDS011;8742;51.716;8.790;2023-07-08T08:53:25;3.50;;;3.20;;
17251;SDS011;8742;51.716;8.790;2023-07-08T08:55:55;6.55;;;2.83;;
17251;SDS011;8742;51.716;8.790;2023-07-08T08:58:27;3.42;;;2.60;;
17251;SDS011;8742;51.716;8.790;2023-07-08T09:01:04;5.63;;;3.85;;
17251;SDS011;8742;51.716;8.790;2023-07-08T09:03:36;3.53;;;3.08;;
17251;SDS011;8742;51.716;8.790;2023-07-08T09:06:09;3.47;;;3.17;;
17251;SDS011;8742;51.716;8.790;2023-07-08T09:08:38;5.28;;;2.85;;
17251;SDS011;8742;51.716;8.790;2023-07-08T09:11:10;4.95;;;3.03;;
17251;SDS011;8742;51.716;8.790;2023-07-08T09:13:53;3.88;;;3.20;;
17251;SDS011;8742;51.716;8.790;2023-07-08T09:16:25;5.25;;;3.38;;
17251;SDS011;8742;51.716;8.790;2023-07-08T09:18:57;4.55;;;3.15;;
17251;SDS011;8742;51.716;8.790;2023-07-08T09:21:27;5.22;;;3.20;;
17251;SDS011;8742;51.716;8.790;2023-07-08T09:23:59;8.85;;;3.40;;
17251;SDS011;8742;51.716;8.790;2023-07-08T09:26:30;7.68;;;3.00;;
17251;SDS011;8742;51.716;8.790;2023-07-08T09:28:59;5.80;;;3.53;;
17251;SDS011;8742;51.716;8.790;2023-07-08T09:31:27;4.28;;;3.05;;
17251;SDS011;8742;51.716;8.790;2023-07-08T09:34:04;3.30;;;3.00;;
17251;SDS011;8742;51.716;8.790;2023-07-08T09:36:32;5.55;;;3.38;;
17251;SDS011;8742;51.716;8.790;2023-07-08T09:39:00;5.22;;;3.50;;
17251;SDS011;8742;51.716;8.790;2023-07-08T09:41:29;5.38;;;3.70;;
17251;SDS011;8742;51.716;8.790;2023-07-08T09:44:02;5.30;;;3.42;;
17251;SDS011;8742;51.716;8.790;2023-07-08T09:46:36;4.75;;;3.35;;
17251;SDS011;8742;51.716;8.790;2023-07-08T09:49:15;8.23;;;3.47;;
17251;SDS011;8742;51.716;8.790;2023-07-08T09:51:45;6.38;;;3.90;;
17251;SDS011;8742;51.716;8.790;2023-07-08T09:54:14;5.82;;;3.88;;
17251;SDS011;8742;51.716;8.790;2023-07-08T09:56:41;4.18;;;3.65;;
17251;SDS011;8742;51.716;8.790;2023-07-08T09:59:13;6.00;;;3.45;;
17251;SDS011;8742;51.716;8.790;2023-07-08T10:01:42;7.30;;;3.65;;
17251;SDS011;8742;51.716;8.790;2023-07-08T10:04:10;3.97;;;3.50;;
17251;SDS011;8742;51.716;8.790;2023-07-08T10:06:38;4.47;;;3.45;;
17251;SDS011;8742;51.716;8.790;2023-07-08T10:09:07;9.00;;;3.83;;
17251;SDS011;8742;51.716;8.790;2023-07-08T10:11:39;6.18;;;3.35;;
17251;SDS011;8742;51.716;8.790;2023-07-08T10:14:14;4.25;;;3.70;;
17251;SDS011;8742;51.716;8.790;2023-07-08T10:16:50;5.22;;;3.80;;
17251;SDS011;8742;51.716;8.790;2023-07-08T10:19:18;6.53;;;3.63;;
17251;SDS011;8742;51.716;8.790;2023-07-08T10:21:48;5.32;;;3.55;;
17251;SDS011;8742;51.716;8.790;2023-07-08T10:24:30;6.25;;;3.72;;
17251;SDS011;8742;51.716;8.790;2023-07-08T10:27:08;4.55;;;3.95;;
17251;SDS011;8742;51.716;8.790;2023-07-08T10:29:44;10.98;;;3.97;;
17251;SDS011;8742;51.716;8.790;2023-07-08T10:32:21;6.65;;;3.72;;
17251;SDS011;8742;51.716;8.790;2023-07-08T10:35:01;4.57;;;3.67;;
17251;SDS011;8742;51.716;8.790;2023-07-08T10:37:40;4.65;;;3.53;;
17251;SDS011;8742;51.716;8.790;2023-07-08T10:40:19;4.97;;;3.90;;
17251;SDS011;8742;51.716;8.790;2023-07-08T10:43:01;5.10;;;4.00;;
17251;SDS011;8742;51.716;8.790;2023-07-08T10:45:38;5.45;;;3.53;;
17251;SDS011;8742;51.716;8.790;2023-07-08T10:48:28;4.65;;;3.80;;
17251;SDS011;8742;51.716;8.790;2023-07-08T10:51:10;4.38;;;3.42;;
17251;SDS011;8742;51.716;8.790;2023-07-08T10:53:47;5.32;;;3.72;;
17251;SDS011;8742;51.716;8.790;2023-07-08T10:56:28;4.93;;;3.72;;
17251;SDS011;8742;51.716;8.790;2023-07-08T10:59:13;5.63;;;4.22;;
17251;SDS011;8742;51.716;8.790;2023-07-08T11:01:57;13.68;;;4.15;;
17251;SDS011;8742;51.716;8.790;2023-07-08T11:04:45;4.38;;;3.97;;
17251;SDS011;8742;51.716;8.790;2023-07-08T11:07:27;8.43;;;4.03;;
17251;SDS011;8742;51.716;8.790;2023-07-08T11:09:59;5.50;;;3.45;;
17251;SDS011;8742;51.716;8.790;2023-07-08T11:12:29;5.38;;;3.70;;
17251;SDS011;8742;51.716;8.790;2023-07-08T11:15:01;5.03;;;3.65;;
17251;SDS011;8742;51.716;8.790;2023-07-08T11:17:34;7.07;;;4.18;;
17251;SDS011;8742;51.716;8.790;2023-07-08T11:20:12;4.47;;;3.75;;
17251;SDS011;8742;51.716;8.790;2023-07-08T11:22:44;4.40;;;3.60;;
17251;SDS011;8742;51.716;8.790;2023-07-08T11:25:16;5.25;;;4.07;;
17251;SDS011;8742;51.716;8.790;2023-07-08T11:27:45;5.65;;;3.58;;
17251;SDS011;8742;51.716;8.790;2023-07-08T11:30:14;7.38;;;4.30;;
17251;SDS011;8742;51.716;8.790;2023-07-08T11:32:44;7.55;;;3.92;;
17251;SDS011;8742;51.716;8.790;2023-07-08T11:35:16;6.85;;;4.40;;
17251;SDS011;8742;51.716;8.790;2023-07-08T11:37:49;6.93;;;4.10;;
17251;SDS011;8742;51.716;8.790;2023-07-08T11:40:18;5.15;;;3.80;;
17251;SDS011;8742;51.716;8.790;2023-07-08T11:42:47;5.93;;;3.92;;
17251;SDS011;8742;51.716;8.790;2023-07-08T11:45:23;6.15;;;3.92;;
17251;SDS011;8742;51.716;8.790;2023-07-08T11:47:53;6.85;;;4.05;;
17251;SDS011;8742;51.716;8.790;2023-07-08T11:50:33;4.25;;;3.83;;
17251;SDS011;8742;51.716;8.790;2023-07-08T11:53:06;5.28;;;3.42;;
17251;SDS011;8742;51.716;8.790;2023-07-08T11:55:35;7.57;;;4.15;;
17251;SDS011;8742;51.716;8.790;2023-07-08T11:58:06;5.45;;;4.13;;
17251;SDS011;8742;51.716;8.790;2023-07-08T12:00:33;5.25;;;4.00;;
17251;SDS011;8742;51.716;8.790;2023-07-08T12:03:16;8.45;;;4.40;;
17251;SDS011;8742;51.716;8.790;2023-07-08T12:05:47;7.57;;;4.20;;
17251;SDS011;8742;51.716;8.790;2023-07-08T12:08:14;4.63;;;4.22;;
17251;SDS011;8742;51.716;8.790;2023-07-08T12:10:46;8.77;;;4.53;;
17251;SDS011;8742;51.716;8.790;2023-07-08T12:13:17;4.95;;;4.00;;
17251;SDS011;8742;51.716;8.790;2023-07-08T12:15:45;6.60;;;4.20;;
17251;SDS011;8742;51.716;8.790;2023-07-08T12:18:13;6.18;;;4.07;;
17251;SDS011;8742;51.716;8.790;2023-07-08T12:20:43;4.95;;;3.92;;
17251;SDS011;8742;51.716;8.790;2023-07-08T12:23:14;8.63;;;4.03;;
17251;SDS011;8742;51.716;8.790;2023-07-08T12:25:44;5.22;;;4.05;;
17251;SDS011;8742;51.716;8.790;2023-07-08T12:28:11;6.32;;;3.78;;
17251;SDS011;8742;51.716;8.790;2023-07-08T12:30:38;4.38;;;3.80;;
17251;SDS011;8742;51.716;8.790;2023-07-08T12:33:09;7.40;;;4.22;;
17251;SDS011;8742;51.716;8.790;2023-07-08T12:35:48;6.15;;;3.90;;
17251;SDS011;8742;51.716;8.790;2023-07-08T12:41:28;4.45;;;3.67;;
17251;SDS011;8742;51.716;8.790;2023-07-08T12:44:18;4.57;;;3.67;;
17251;SDS011;8742;51.716;8.790;2023-07-08T12:47:06;6.65;;;4.30;;
17251;SDS011;8742;51.716;8.790;2023-07-08T12:49:48;5.80;;;4.32;;
17251;SDS011;8742;51.716;8.790;2023-07-08T12:52:32;4.65;;;3.95;;
17251;SDS011;8742;51.716;8.790;2023-07-08T12:55:00;4.57;;;4.13;;
17251;SDS011;8742;51.716;8.790;2023-07-08T12:57:35;7.50;;;4.07;;
17251;SDS011;8742;51.716;8.790;2023-07-08T13:00:34;6.88;;;3.97;;
17251;SDS011;8742;51.716;8.790;2023-07-08T13:03:40;4.60;;;3.83;;
17251;SDS011;8742;51.716;8.790;2023-07-08T13:06:27;9.65;;;3.78;;
17251;SDS011;8742;51.716;8.790;2023-07-08T13:09:07;5.18;;;4.38;;
17251;SDS011;8742;51.716;8.790;2023-07-08T13:11:51;6.03;;;4.15;;
17251;SDS011;8742;51.716;8.790;2023-07-08T13:14:27;4.95;;;3.95;;
17251;SDS011;8742;51.716;8.790;2023-07-08T13:17:11;4.93;;;4.35;;
17251;SDS011;8742;51.716;8.790;2023-07-08T13:19:49;5.60;;;4.22;;
17251;SDS011;8742;51.716;8.790;2023-07-08T13:22:17;4.78;;;4.22;;
17251;SDS011;8742;51.716;8.790;2023-07-08T13:24:45;9.00;;;4.28;;
17251;SDS011;8742;51.716;8.790;2023-07-08T13:27:16;7.20;;;4.65;;
17251;SDS011;8742;51.716;8.790;2023-07-08T13:29:47;5.20;;;4.15;;
17251;SDS011;8742;51.716;8.790;2023-07-08T13:32:14;7.85;;;4.03;;
17251;SDS011;8742;51.716;8.790;2023-07-08T13:34:41;4.55;;;4.03;;
17251;SDS011;8742;51.716;8.790;2023-07-08T13:37:09;4.55;;;4.15;;
17251;SDS011;8742;51.716;8.790;2023-07-08T13:39:43;4.82;;;4.35;;
17251;SDS011;8742;51.716;8.790;2023-07-08T13:42:12;6.25;;;4.28;;
17251;SDS011;8742;51.716;8.790;2023-07-08T13:44:46;10.85;;;4.32;;
17251;SDS011;8742;51.716;8.790;2023-07-08T13:47:20;6.85;;;4.22;;
17251;SDS011;8742;51.716;8.790;2023-07-08T13:49:54;6.70;;;3.95;;
17251;SDS011;8742;51.716;8.790;2023-07-08T13:52:26;8.73;;;4.70;;
17251;SDS011;8742;51.716;8.790;2023-07-08T13:54:53;5.60;;;4.18;;
17251;SDS011;8742;51.716;8.790;2023-07-08T13:57:28;4.20;;;3.78;;
17251;SDS011;8742;51.716;8.790;2023-07-08T14:00:04;4.53;;;4.05;;
17251;SDS011;8742;51.716;8.790;2023-07-08T14:02:33;4.68;;;3.88;;
17251;SDS011;8742;51.716;8.790;2023-07-08T14:05:01;4.82;;;4.40;;
17251;SDS011;8742;51.716;8.790;2023-07-08T14:07:30;6.57;;;4.43;;
17251;SDS011;8742;51.716;8.790;2023-07-08T14:09:58;6.03;;;4.30;;
17251;SDS011;8742;51.716;8.790;2023-07-08T14:12:27;5.72;;;4.32;;
17251;SDS011;8742;51.716;8.790;2023-07-08T14:14:54;6.55;;;4.25;;
17251;SDS011;8742;51.716;8.790;2023-07-08T14:17:23;5.95;;;4.13;;
17251;SDS011;8742;51.716;8.790;2023-07-08T14:19:53;5.22;;;4.70;;
17251;SDS011;8742;51.716;8.790;2023-07-08T14:22:22;4.63;;;4.15;;
17251;SDS011;8742;51.716;8.790;2023-07-08T14:24:50;4.10;;;3.70;;
17251;SDS011;8742;51.716;8.790;2023-07-08T14:27:17;5.43;;;3.88;;
17251;SDS011;8742;51.716;8.790;2023-07-08T14:29:46;4.88;;;4.18;;
17251;SDS011;8742;51.716;8.790;2023-07-08T14:32:15;5.50;;;4.25;;
17251;SDS011;8742;51.716;8.790;2023-07-08T14:34:48;5.85;;;4.40;;
17251;SDS011;8742;51.716;8.790;2023-07-08T14:37:18;5.75;;;4.28;;
17251;SDS011;8742;51.716;8.790;2023-07-08T14:39:46;5.18;;;4.03;;
17251;SDS011;8742;51.716;8.790;2023-07-08T14:42:14;5.05;;;4.00;;
17251;SDS011;8742;51.716;8.790;2023-07-08T14:44:42;5.85;;;4.65;;
17251;SDS011;8742;51.716;8.790;2023-07-08T14:47:11;5.88;;;4.20;;
17251;SDS011;8742;51.716;8.790;2023-07-08T14:49:39;4.90;;;3.95;;
17251;SDS011;8742;51.716;8.790;2023-07-08T14:52:07;6.20;;;4.32;;
17251;SDS011;8742;51.716;8.790;2023-07-08T14:54:35;5.20;;;3.90;;
17251;SDS011;8742;51.716;8.790;2023-07-08T14:57:02;5.03;;;4.38;;
17251;SDS011;8742;51.716;8.790;2023-07-08T14:59:32;5.78;;;4.28;;
17251;SDS011;8742;51.716;8.790;2023-07-08T15:02:01;8.32;;;4.22;;
17251;SDS011;8742;51.716;8.790;2023-07-08T15:04:41;6.50;;;4.32;;
17251;SDS011;8742;51.716;8.790;2023-07-08T15:07:09;9.13;;;4.95;;
17251;SDS011;8742;51.716;8.790;2023-07-08T15:09:36;4.68;;;4.10;;
17251;SDS011;8742;51.716;8.790;2023-07-08T15:12:03;5.15;;;4.00;;
17251;SDS011;8742;51.716;8.790;2023-07-08T15:14:34;4.65;;;3.90;;
17251;SDS011;8742;51.716;8.790;2023-07-08T15:17:01;7.32;;;4.28;;
17251;SDS011;8742;51.716;8.790;2023-07-08T15:19:28;5.95;;;4.15;;
17251;SDS011;8742;51.716;8.790;2023-07-08T15:21:55;4.88;;;4.10;;
17251;SDS011;8742;51.716;8.790;2023-07-08T15:24:23;8.13;;;4.97;;